createdAt,value
2019-04-26T00:01:19.510Z,0.87
2019-04-26T00:03:47.982Z,0.63
2019-04-26T00:06:16.719Z,0.47
2019-04-26T00:08:46.470Z,0.57
2019-04-26T00:11:18.216Z,0.33
2019-04-26T00:14:04.629Z,0.40
2019-04-26T00:16:35.942Z,0.40
2019-04-26T00:19:09.804Z,0.37
2019-04-26T00:21:37.791Z,0.30
2019-04-26T00:24:06.667Z,0.90
2019-04-26T00:26:36.212Z,0.53
2019-04-26T00:29:03.558Z,0.30
2019-04-26T00:31:31.999Z,0.40
2019-04-26T00:33:58.474Z,1.30
2019-04-26T00:36:33.059Z,0.47
2019-04-26T00:38:59.951Z,1.13
2019-04-26T00:41:29.731Z,3.10
2019-04-26T00:43:57.643Z,0.63
2019-04-26T00:46:27.275Z,0.70
2019-04-26T00:48:55.510Z,1.20
2019-04-26T00:51:26.778Z,1.20
2019-04-26T00:53:56.230Z,0.83
2019-04-26T00:56:24.605Z,1.00
2019-04-26T00:58:51.580Z,0.60
2019-04-26T01:01:20.695Z,0.67
2019-04-26T01:03:47.580Z,0.50
2019-04-26T01:09:01.712Z,1.97
2019-04-26T01:11:31.111Z,0.60
2019-04-26T01:13:57.745Z,0.97
2019-04-26T01:16:24.538Z,3.23
2019-04-26T01:18:53.024Z,1.57
2019-04-26T01:21:29.505Z,1.00
2019-04-26T01:24:01.840Z,0.83
2019-04-26T01:26:38.183Z,1.17
2019-04-26T01:29:11.050Z,1.60
2019-04-26T01:31:41.828Z,1.73
2019-04-26T01:34:14.636Z,1.47
2019-04-26T01:36:44.861Z,2.00
2019-04-26T01:39:18.267Z,1.23
2019-04-26T01:41:48.711Z,1.13
2019-04-26T01:44:18.075Z,1.37
2019-04-26T01:46:46.952Z,2.70
2019-04-26T01:49:15.640Z,0.77
2019-04-26T01:51:57.378Z,4.67
2019-04-26T01:54:29.929Z,0.97
2019-04-26T01:57:00.075Z,0.67
2019-04-26T01:59:27.417Z,1.00
2019-04-26T02:02:01.691Z,1.43
2019-04-26T02:04:30.046Z,1.67
2019-04-26T02:06:56.603Z,2.03
2019-04-26T02:09:24.260Z,1.30
2019-04-26T02:11:51.025Z,0.70
2019-04-26T02:14:17.871Z,0.73
2019-04-26T02:16:47.533Z,0.70
2019-04-26T02:19:13.825Z,2.57
2019-04-26T02:21:42.922Z,2.40
2019-04-26T02:24:20.164Z,1.37
2019-04-26T02:26:47.826Z,0.90
2019-04-26T02:29:26.809Z,1.73
2019-04-26T02:31:57.271Z,0.60
2019-04-26T02:34:27.223Z,2.93
2019-04-26T02:37:01.991Z,1.73
2019-04-26T02:39:39.051Z,1.00
2019-04-26T02:42:09.523Z,0.97
2019-04-26T02:44:41.932Z,1.33
2019-04-26T02:47:28.928Z,1.17
2019-04-26T02:50:08.560Z,1.07
2019-04-26T02:52:45.072Z,0.70
2019-04-26T02:55:24.909Z,1.43
2019-04-26T02:57:52.920Z,1.47
2019-04-26T03:00:20.499Z,1.50
2019-04-26T03:02:51.942Z,1.30
2019-04-26T03:05:19.279Z,2.67
2019-04-26T03:07:55.504Z,1.83
2019-04-26T03:10:28.737Z,3.80
2019-04-26T03:12:59.254Z,1.30
2019-04-26T03:15:39.925Z,1.13
2019-04-26T03:18:31.728Z,1.53
2019-04-26T03:21:02.711Z,1.37
2019-04-26T03:23:56.371Z,1.40
2019-04-26T03:26:20.562Z,1.40
2019-04-26T03:28:50.879Z,2.37
2019-04-26T03:31:29.635Z,2.23
2019-04-26T03:34:17.294Z,2.03
2019-04-26T03:37:20.429Z,1.83
2019-04-26T03:39:50.706Z,1.23
2019-04-26T03:42:34.315Z,1.67
2019-04-26T03:45:04.735Z,1.23
2019-04-26T03:47:53.374Z,1.80
2019-04-26T03:50:23.558Z,1.50
2019-04-26T03:52:54.079Z,2.23
2019-04-26T03:55:32.139Z,2.60
2019-04-26T03:58:07.554Z,1.30
2019-04-26T04:00:46.575Z,1.77
2019-04-26T04:03:26.793Z,1.93
2019-04-26T04:05:56.865Z,1.63
2019-04-26T04:08:27.476Z,1.43
2019-04-26T04:11:04.800Z,1.73
2019-04-26T04:13:43.090Z,1.73
2019-04-26T04:16:18.898Z,1.63
2019-04-26T04:18:54.013Z,2.37
2019-04-26T04:21:30.775Z,2.17
2019-04-26T04:24:06.633Z,1.80
2019-04-26T04:26:39.727Z,2.20
2019-04-26T04:29:17.334Z,1.10
2019-04-26T04:31:51.472Z,2.10
2019-04-26T04:34:24.736Z,1.60
2019-04-26T04:36:56.372Z,1.70
2019-04-26T04:39:44.832Z,3.83
2019-04-26T04:42:28.819Z,2.30
2019-04-26T04:45:10.000Z,2.53
2019-04-26T04:48:03.208Z,2.80
2019-04-26T04:50:38.297Z,2.20
2019-04-26T04:53:14.399Z,3.50
2019-04-26T04:56:02.772Z,2.00
2019-04-26T04:58:42.964Z,1.43
2019-04-26T05:01:20.570Z,2.03
2019-04-26T05:04:00.766Z,2.30
2019-04-26T05:07:07.518Z,2.67
2019-04-26T05:09:51.554Z,3.30
2019-04-26T05:12:28.639Z,1.83
2019-04-26T05:15:20.492Z,2.43
2019-04-26T05:17:53.721Z,4.00
2019-04-26T05:20:24.511Z,2.70
2019-04-26T05:23:33.250Z,2.83
2019-04-26T05:26:09.683Z,1.70
2019-04-26T05:29:08.000Z,3.97
2019-04-26T05:32:15.656Z,1.87
2019-04-26T05:35:06.073Z,2.60
2019-04-26T05:37:44.940Z,4.13
2019-04-26T05:40:35.734Z,1.47
2019-04-26T05:43:24.719Z,2.63
2019-04-26T05:46:23.693Z,2.17
2019-04-26T05:49:11.966Z,1.70
2019-04-26T05:52:05.387Z,3.53
2019-04-26T05:54:50.814Z,1.73
2019-04-26T05:57:39.099Z,2.47
2019-04-26T06:00:17.598Z,2.77
2019-04-26T06:03:01.879Z,2.10
2019-04-26T06:05:52.598Z,1.57
2019-04-26T06:08:31.466Z,1.23
2019-04-26T06:11:02.912Z,1.40
2019-04-26T06:13:44.242Z,1.40
2019-04-26T06:16:33.116Z,1.37
2019-04-26T06:19:43.621Z,1.30
2019-04-26T06:22:20.085Z,2.60
2019-04-26T06:24:54.233Z,1.63
2019-04-26T06:27:38.308Z,1.30
2019-04-26T06:30:11.839Z,1.47
2019-04-26T06:33:05.560Z,1.77
2019-04-26T06:35:39.781Z,1.63
2019-04-26T06:38:21.217Z,2.03
2019-04-26T06:41:00.878Z,1.77
2019-04-26T06:43:33.128Z,1.97
2019-04-26T06:46:31.188Z,3.33
2019-04-26T06:49:21.616Z,1.60
2019-04-26T06:52:08.541Z,3.93
2019-04-26T06:54:48.675Z,2.60
2019-04-26T06:57:59.364Z,2.00
2019-04-26T07:00:39.965Z,1.40
2019-04-26T07:03:27.277Z,2.07
2019-04-26T07:06:02.414Z,2.10
2019-04-26T07:08:57.655Z,2.30
2019-04-26T07:11:52.383Z,3.47
2019-04-26T07:14:35.083Z,3.07
2019-04-26T07:17:13.398Z,1.40
2019-04-26T07:20:07.774Z,1.77
2019-04-26T07:23:04.149Z,3.37
2019-04-26T07:25:52.977Z,1.50
2019-04-26T07:28:48.388Z,1.50
2019-04-26T07:31:22.978Z,1.80
2019-04-26T07:34:14.886Z,1.50
2019-04-26T07:37:21.665Z,3.47
2019-04-26T07:40:12.240Z,2.07
2019-04-26T07:43:03.166Z,1.53
2019-04-26T07:45:47.421Z,2.00
2019-04-26T07:48:21.430Z,1.87
2019-04-26T07:51:07.153Z,1.53
2019-04-26T07:53:46.820Z,1.63
2019-04-26T07:56:37.457Z,2.53
2019-04-26T07:59:14.849Z,1.33
2019-04-26T08:01:55.383Z,1.50
2019-04-26T08:04:33.382Z,1.97
2019-04-26T08:07:10.892Z,1.40
2019-04-26T08:09:42.439Z,1.40
2019-04-26T08:12:12.605Z,1.53
2019-04-26T08:14:54.039Z,1.60
2019-04-26T08:17:34.661Z,1.30
2019-04-26T08:20:19.102Z,2.60
2019-04-26T08:22:52.214Z,1.50
2019-04-26T08:25:21.977Z,1.80
2019-04-26T08:27:52.330Z,2.57
2019-04-26T08:30:22.901Z,2.50
2019-04-26T08:33:02.090Z,4.30
2019-04-26T08:35:33.042Z,1.73
2019-04-26T08:38:07.973Z,3.07
2019-04-26T08:40:33.999Z,1.10
2019-04-26T08:43:23.006Z,1.00
2019-04-26T08:46:13.064Z,2.20
2019-04-26T08:48:47.979Z,0.90
2019-04-26T08:51:22.161Z,3.70
2019-04-26T08:53:53.155Z,1.37
2019-04-26T08:56:35.435Z,0.57
2019-04-26T08:59:16.091Z,0.50
2019-04-26T09:01:53.289Z,0.70
2019-04-26T09:04:36.353Z,0.50
2019-04-26T09:07:09.971Z,2.03
2019-04-26T09:09:40.174Z,1.53
2019-04-26T09:12:22.457Z,3.80
2019-04-26T09:14:45.529Z,0.80
2019-04-26T09:17:13.125Z,2.30
2019-04-26T09:19:39.630Z,0.80
2019-04-26T09:22:26.492Z,0.70
2019-04-26T09:25:01.118Z,1.03
2019-04-26T09:27:37.154Z,3.50
2019-04-26T09:30:12.300Z,0.67
2019-04-26T09:32:40.726Z,1.33
2019-04-26T09:35:11.347Z,0.70
2019-04-26T09:37:37.280Z,0.53
2019-04-26T09:40:10.509Z,0.73
2019-04-26T09:42:52.675Z,1.00
2019-04-26T09:45:22.360Z,0.50
2019-04-26T09:47:53.798Z,0.40
2019-04-26T09:50:41.225Z,2.67
2019-04-26T09:53:10.290Z,0.47
2019-04-26T09:55:36.634Z,0.80
2019-04-26T09:58:03.867Z,0.80
2019-04-26T10:00:31.280Z,0.60
2019-04-26T10:03:00.976Z,0.60
2019-04-26T10:05:27.481Z,1.93
2019-04-26T10:07:54.141Z,0.83
2019-04-26T10:10:23.043Z,2.17
2019-04-26T10:12:52.022Z,0.50
2019-04-26T10:15:22.494Z,0.50
2019-04-26T10:17:55.240Z,0.60
2019-04-26T10:20:21.699Z,0.60
2019-04-26T10:22:48.314Z,0.83
2019-04-26T10:25:16.891Z,3.00
2019-04-26T10:27:49.251Z,0.63
2019-04-26T10:30:17.276Z,0.53
2019-04-26T10:32:43.855Z,0.90
2019-04-26T10:35:10.767Z,0.60
2019-04-26T10:37:39.473Z,0.70
2019-04-26T10:40:09.169Z,0.60
2019-04-26T10:42:35.889Z,0.60
2019-04-26T10:45:10.495Z,1.63
2019-04-26T10:47:38.505Z,0.70
2019-04-26T10:50:07.699Z,0.60
2019-04-26T10:52:53.708Z,0.70
2019-04-26T10:55:21.874Z,1.33
2019-04-26T10:57:52.179Z,1.73
2019-04-26T11:00:23.829Z,1.40
2019-04-26T11:02:51.162Z,0.40
2019-04-26T11:05:19.222Z,0.50
2019-04-26T11:07:47.098Z,0.90
2019-04-26T11:10:13.825Z,0.83
2019-04-26T11:12:43.405Z,0.47
2019-04-26T11:15:09.229Z,1.03
2019-04-26T11:17:35.481Z,0.70
2019-04-26T11:20:06.267Z,0.50
2019-04-26T11:22:37.652Z,0.63
2019-04-26T11:25:03.662Z,0.77
2019-04-26T11:27:30.493Z,0.97
2019-04-26T11:29:59.657Z,4.27
2019-04-26T11:32:26.626Z,0.90
2019-04-26T11:34:54.643Z,1.33
2019-04-26T11:37:22.374Z,1.13
2019-04-26T11:39:50.586Z,1.73
2019-04-26T11:42:17.978Z,1.70
2019-04-26T11:44:44.829Z,1.57
2019-04-26T11:47:11.331Z,2.27
2019-04-26T11:49:41.637Z,0.63
2019-04-26T11:52:07.080Z,0.60
2019-04-26T11:54:33.718Z,1.80
2019-04-26T11:57:00.340Z,4.83
2019-04-26T11:59:31.940Z,3.37
2019-04-26T12:01:58.923Z,1.30
2019-04-26T12:04:42.209Z,2.33
2019-04-26T12:07:30.529Z,1.97
2019-04-26T12:09:59.178Z,1.27
2019-04-26T12:12:27.705Z,1.73
2019-04-26T12:14:55.414Z,2.80
2019-04-26T12:17:23.344Z,1.50
2019-04-26T12:19:52.287Z,1.17
2019-04-26T12:22:20.202Z,1.17
2019-04-26T12:24:46.857Z,1.63
2019-04-26T12:27:13.264Z,0.83
2019-04-26T12:29:44.202Z,3.40
2019-04-26T12:32:11.490Z,0.63
2019-04-26T12:34:37.889Z,1.47
2019-04-26T12:37:04.551Z,0.47
2019-04-26T12:39:32.366Z,1.70
2019-04-26T12:42:02.518Z,2.30
2019-04-26T12:44:32.136Z,0.50
2019-04-26T12:47:05.664Z,0.57
2019-04-26T12:49:35.342Z,2.07
2019-04-26T12:52:01.642Z,0.40
2019-04-26T12:54:28.106Z,0.63
2019-04-26T12:56:54.478Z,2.57
2019-04-26T12:59:22.488Z,3.60
2019-04-26T13:01:49.626Z,5.70
2019-04-26T13:04:16.319Z,4.63
2019-04-26T13:06:50.816Z,1.33
2019-04-26T13:09:21.747Z,0.93
2019-04-26T13:12:04.786Z,0.70
2019-04-26T13:14:42.963Z,0.80
2019-04-26T13:17:10.112Z,1.33
2019-04-26T13:19:40.541Z,0.70
2019-04-26T13:22:08.467Z,1.43
2019-04-26T13:24:39.885Z,3.00
2019-04-26T13:27:10.498Z,1.13
2019-04-26T13:29:34.463Z,1.37
2019-04-26T13:32:02.015Z,0.83
2019-04-26T13:34:28.402Z,1.03
2019-04-26T13:36:54.790Z,0.93
2019-04-26T13:39:22.536Z,0.73
2019-04-26T13:42:02.874Z,0.90
2019-04-26T13:44:42.903Z,0.90
2019-04-26T13:47:30.151Z,1.27
2019-04-26T13:50:04.739Z,2.03
2019-04-26T13:52:32.579Z,0.70
2019-04-26T13:55:00.270Z,1.10
2019-04-26T13:57:26.951Z,1.33
2019-04-26T13:59:53.546Z,1.40
2019-04-26T14:02:20.694Z,1.53
2019-04-26T14:04:47.336Z,1.27
2019-04-26T14:07:20.098Z,1.33
2019-04-26T14:09:46.269Z,1.30
2019-04-26T14:12:18.533Z,1.73
2019-04-26T14:14:41.523Z,1.40
2019-04-26T14:17:08.266Z,1.70
2019-04-26T14:19:35.834Z,3.30
2019-04-26T14:22:03.132Z,2.00
2019-04-26T14:24:41.573Z,1.20
2019-04-26T14:27:10.424Z,1.87
2019-04-26T14:29:38.399Z,1.10
2019-04-26T14:32:06.443Z,1.47
2019-04-26T14:34:36.269Z,3.40
2019-04-26T14:37:06.770Z,3.07
2019-04-26T14:39:38.635Z,3.63
2019-04-26T14:41:59.260Z,1.60
2019-04-26T14:44:27.181Z,1.57
2019-04-26T14:46:56.823Z,2.27
2019-04-26T14:49:25.005Z,1.70
2019-04-26T14:51:56.168Z,0.80
2019-04-26T14:54:22.690Z,1.27
2019-04-26T14:56:52.209Z,1.73
2019-04-26T14:59:19.614Z,1.80
2019-04-26T15:01:57.206Z,3.87
2019-04-26T15:04:37.714Z,1.70
2019-04-26T15:07:05.626Z,2.93
2019-04-26T15:09:34.673Z,2.67
2019-04-26T15:12:02.996Z,2.20
2019-04-26T15:14:30.174Z,2.50
2019-04-26T15:16:56.785Z,1.83
2019-04-26T15:19:23.166Z,1.57
2019-04-26T15:21:49.767Z,1.83
2019-04-26T15:24:16.143Z,3.17
2019-04-26T15:26:43.619Z,1.13
2019-04-26T15:29:12.640Z,1.60
2019-04-26T15:31:40.471Z,1.20
2019-04-26T15:34:06.922Z,1.97
2019-04-26T15:36:33.173Z,1.50
2019-04-26T15:39:07.453Z,3.40
2019-04-26T15:41:36.582Z,5.07
2019-04-26T15:44:06.358Z,3.07
2019-04-26T15:46:50.173Z,2.27
2019-04-26T15:49:19.185Z,1.50
2019-04-26T15:51:45.507Z,1.60
2019-04-26T15:54:11.975Z,1.33
2019-04-26T15:56:41.750Z,1.53
2019-04-26T15:59:08.015Z,1.73
2019-04-26T16:01:35.289Z,4.17
2019-04-26T16:04:05.762Z,3.80
2019-04-26T16:06:30.034Z,1.97
2019-04-26T16:08:57.078Z,1.90
2019-04-26T16:11:23.470Z,4.70
2019-04-26T16:13:55.080Z,2.63
2019-04-26T16:16:20.714Z,2.00
2019-04-26T16:18:53.392Z,3.77
2019-04-26T16:21:18.099Z,3.87
2019-04-26T16:23:51.012Z,2.07
2019-04-26T16:26:16.154Z,2.33
2019-04-26T16:28:45.709Z,2.53
2019-04-26T16:31:14.374Z,2.40
2019-04-26T16:33:52.145Z,2.93
2019-04-26T16:36:18.438Z,4.63
2019-04-26T16:38:48.652Z,2.47
2019-04-26T16:41:13.113Z,1.47
2019-04-26T16:43:44.628Z,1.53
2019-04-26T16:46:12.561Z,1.23
2019-04-26T16:48:36.309Z,1.83
2019-04-26T16:51:08.442Z,1.33
2019-04-26T16:53:46.299Z,1.40
2019-04-26T16:56:02.974Z,1.20
2019-04-26T17:00:33.602Z,1.23
2019-04-26T17:01:04.676Z,1.67
2019-04-26T17:03:30.680Z,1.47
2019-04-26T17:06:09.142Z,4.30
2019-04-26T17:08:27.017Z,1.37
2019-04-26T17:10:56.645Z,1.20
2019-04-26T17:13:23.983Z,2.63
2019-04-26T17:15:51.966Z,2.77
2019-04-26T17:18:19.387Z,6.27
2019-04-26T17:20:48.244Z,1.37
2019-04-26T17:23:33.414Z,1.20
2019-04-26T17:26:18.021Z,1.03
2019-04-26T17:28:46.363Z,3.30
2019-04-26T17:31:13.001Z,2.40
2019-04-26T17:33:39.876Z,2.10
2019-04-26T17:36:11.452Z,1.30
2019-04-26T17:38:39.271Z,1.73
2019-04-26T17:41:10.920Z,1.50
2019-04-26T17:43:36.186Z,3.13
2019-04-26T17:46:08.010Z,1.20
2019-04-26T17:49:11.046Z,2.07
2019-04-26T17:51:43.632Z,3.37
2019-04-26T17:54:41.072Z,1.90
2019-04-26T17:56:56.720Z,1.20
2019-04-26T18:02:25.722Z,1.50
2019-04-26T18:08:31.336Z,2.17
2019-04-26T18:10:49.404Z,1.57
2019-04-26T18:13:33.090Z,11.73
2019-04-26T18:16:09.788Z,7.20
2019-04-26T18:18:56.162Z,5.13
2019-04-26T18:21:44.972Z,4.80
2019-04-26T18:24:13.188Z,3.90
2019-04-26T18:26:59.306Z,3.13
2019-04-26T18:29:47.154Z,6.83
2019-04-26T18:32:17.203Z,5.13
2019-04-26T18:38:08.524Z,2.80
2019-04-26T18:40:59.954Z,13.93
2019-04-26T18:46:16.939Z,14.13
2019-04-26T18:48:54.109Z,11.70
2019-04-26T18:51:48.427Z,7.10
2019-04-26T18:54:41.329Z,7.33
2019-04-26T18:57:17.088Z,5.57
2019-04-26T19:00:09.794Z,3.03
2019-04-26T19:02:55.431Z,2.77
2019-04-26T19:05:33.819Z,3.77
2019-04-26T19:08:27.201Z,2.63
2019-04-26T19:11:01.263Z,2.53
2019-04-26T19:13:57.540Z,3.50
2019-04-26T19:22:34.513Z,3.03
2019-04-26T19:25:29.971Z,2.60
2019-04-26T19:27:54.067Z,2.90
2019-04-26T19:30:50.999Z,4.37
2019-04-26T19:33:16.862Z,3.93
2019-04-26T19:36:13.573Z,3.27
2019-04-26T19:41:51.993Z,10.10
2019-04-26T19:44:42.799Z,4.70
2019-04-26T19:47:30.146Z,4.00
2019-04-26T19:50:42.009Z,3.27
2019-04-26T19:53:22.969Z,2.30
2019-04-26T19:55:54.933Z,3.50
2019-04-26T19:58:23.254Z,3.50
2019-04-26T20:00:53.267Z,3.77
2019-04-26T20:03:22.011Z,3.23
2019-04-26T20:05:48.772Z,4.73
2019-04-26T20:08:15.146Z,3.43
2019-04-26T20:10:45.347Z,4.60
2019-04-26T20:13:15.149Z,3.83
2019-04-26T20:15:42.389Z,3.50
2019-04-26T20:18:09.112Z,3.40
2019-04-26T20:20:36.390Z,3.33
2019-04-26T20:23:04.107Z,3.13
2019-04-26T20:25:31.120Z,3.33
2019-04-26T20:28:00.805Z,3.47
2019-04-26T20:30:32.787Z,3.63
2019-04-26T20:33:01.824Z,6.43
2019-04-26T20:35:28.619Z,7.00
2019-04-26T20:38:01.089Z,4.27
2019-04-26T20:40:26.201Z,4.07
2019-04-26T20:43:01.753Z,7.77
2019-04-26T20:45:23.059Z,7.23
2019-04-26T20:47:51.968Z,6.77
2019-04-26T20:50:19.285Z,5.63
2019-04-26T20:52:47.484Z,7.33
2019-04-26T20:55:14.319Z,7.23
2019-04-26T20:57:44.768Z,5.70
2019-04-26T21:00:13.898Z,6.93
2019-04-26T21:02:40.798Z,8.53
2019-04-26T21:05:11.258Z,6.37
2019-04-26T21:07:36.683Z,13.53
2019-04-26T21:10:06.362Z,11.60
2019-04-26T21:12:34.356Z,9.00
2019-04-26T21:15:04.078Z,8.57
2019-04-26T21:17:32.384Z,5.77
2019-04-26T21:20:02.161Z,5.17
2019-04-26T21:22:31.731Z,4.87
2019-04-26T21:25:04.659Z,5.67
2019-04-26T21:27:33.458Z,5.30
2019-04-26T21:30:03.360Z,4.43
2019-04-26T21:32:55.977Z,4.60
2019-04-26T21:35:28.135Z,6.10
2019-04-26T21:38:03.985Z,4.73
2019-04-26T21:40:38.450Z,5.57
2019-04-26T21:43:05.370Z,7.03
2019-04-26T21:45:33.550Z,6.10
2019-04-26T21:48:02.567Z,6.07
2019-04-26T21:50:35.819Z,8.97
2019-04-26T21:53:05.171Z,5.13
2019-04-26T21:55:35.350Z,5.57
2019-04-26T21:58:02.738Z,6.13
2019-04-26T22:00:33.419Z,10.20
2019-04-26T22:03:03.677Z,4.70
2019-04-26T22:05:30.118Z,4.20
2019-04-26T22:07:56.871Z,4.43
2019-04-26T22:10:43.705Z,3.73
2019-04-26T22:13:14.294Z,4.87
2019-04-26T22:15:49.205Z,4.10
2019-04-26T22:18:21.492Z,4.20
2019-04-26T22:20:52.259Z,9.10
2019-04-26T22:23:28.807Z,4.40
2019-04-26T22:26:00.061Z,5.47
2019-04-26T22:28:26.838Z,6.40
2019-04-26T22:30:55.211Z,7.10
2019-04-26T22:33:21.575Z,7.60
2019-04-26T22:35:55.316Z,6.20
2019-04-26T22:38:23.592Z,6.23
2019-04-26T22:40:53.235Z,7.47
2019-04-26T22:43:30.727Z,5.50
2019-04-26T22:46:11.084Z,4.53
2019-04-26T22:48:42.018Z,5.00
2019-04-26T22:51:08.746Z,5.10
2019-04-26T22:53:35.396Z,4.73
2019-04-26T22:56:03.370Z,6.93
2019-04-26T22:58:33.751Z,5.70
2019-04-26T23:01:03.563Z,3.47
2019-04-26T23:03:29.469Z,4.53
2019-04-26T23:05:56.160Z,5.07
2019-04-26T23:08:23.653Z,4.73
2019-04-26T23:10:53.106Z,4.30
2019-04-26T23:13:27.682Z,8.07
2019-04-26T23:15:55.960Z,4.57
2019-04-26T23:18:27.525Z,4.47
2019-04-26T23:21:11.968Z,4.97
2019-04-26T23:23:40.932Z,6.13
2019-04-26T23:26:07.743Z,4.10
2019-04-26T23:28:37.065Z,4.90
2019-04-26T23:31:10.994Z,3.93
2019-04-26T23:33:39.900Z,5.90
2019-04-26T23:36:06.329Z,4.47
2019-04-26T23:38:37.309Z,5.67
2019-04-26T23:41:07.260Z,4.20
2019-04-26T23:43:32.925Z,4.00
2019-04-26T23:46:00.742Z,5.27
2019-04-26T23:48:27.030Z,5.47
2019-04-26T23:50:53.955Z,4.30
2019-04-26T23:53:21.303Z,5.80
2019-04-26T23:55:48.015Z,4.63
2019-04-26T23:58:16.737Z,5.97
